Time;durP1;ratioP1;P1;durP2;ratioP2;P2;SDS_P1;SDS_P2;PMS_P1;PMS_P2;Temp;Humidity;BMP_temperature;BMP_pressure;BME280_temperature;BME280_humidity;BME280_pressure;Samples;Min_cycle;Max_cycle;Signal;HPM_P1;HPM_P2
2022/05/08 00:01:04;;;;;;;3.70;2.67;;;;;;;;;;5053347;28;20056;-49
2022/05/08 00:03:29;;;;;;;8.13;4.20;;;;;;;;;;5053566;28;20040;-49
2022/05/08 00:05:55;;;;;;;2.42;2.22;;;;;;;;;;5053288;28;20020;-50
2022/05/08 00:08:20;;;;;;;7.57;4.47;;;;;;;;;;5052671;28;20121;-49
2022/05/08 00:10:46;;;;;;;6.53;3.92;;;;;;;;;;5053366;28;20029;-48
2022/05/08 00:13:12;;;;;;;6.43;4.50;;;;;;;;;;5053032;28;20071;-48
2022/05/08 00:15:37;;;;;;;5.90;4.38;;;;;;;;;;5053490;28;20035;-48
2022/05/08 00:18:03;;;;;;;7.65;4.72;;;;;;;;;;5052994;28;20078;-47
2022/05/08 00:20:28;;;;;;;6.50;4.85;;;;;;;;;;5053114;28;20057;-48
2022/05/08 00:22:54;;;;;;;6.30;4.97;;;;;;;;;;5053015;28;20380;-49
2022/05/08 00:25:19;;;;;;;6.45;5.32;;;;;;;;;;5053041;28;20036;-49
2022/05/08 00:27:45;;;;;;;8.13;5.60;;;;;;;;;;5053224;28;20025;-49
2022/05/08 00:30:11;;;;;;;10.45;4.47;;;;;;;;;;5052984;28;20025;-47
2022/05/08 00:32:36;;;;;;;7.05;5.78;;;;;;;;;;5052609;28;20024;-51
2022/05/08 00:35:02;;;;;;;7.00;4.55;;;;;;;;;;5053100;28;20028;-51
2022/05/08 00:37:27;;;;;;;10.65;4.75;;;;;;;;;;5052745;28;20021;-49
2022/05/08 00:39:53;;;;;;;7.25;5.18;;;;;;;;;;5052064;28;20025;-50
2022/05/08 00:42:18;;;;;;;10.93;5.70;;;;;;;;;;5052945;28;20028;-50
2022/05/08 00:44:44;;;;;;;6.80;5.47;;;;;;;;;;5053029;28;20071;-49
2022/05/08 00:47:09;;;;;;;11.07;5.53;;;;;;;;;;5052790;28;20063;-49
2022/05/08 00:49:34;;;;;;;7.93;5.28;;;;;;;;;;5052684;28;20028;-50
2022/05/08 00:52:00;;;;;;;5.72;4.00;;;;;;;;;;5052716;28;20025;-49
2022/05/08 00:54:26;;;;;;;1.85;1.75;;;;;;;;;;5052512;28;20480;-49
2022/05/08 00:56:53;;;;;;;4.07;3.22;;;;;;;;;;5052774;28;20021;-51
2022/05/08 00:59:19;;;;;;;8.32;4.57;;;;;;;;;;5051509;28;20047;-50
2022/05/08 01:01:45;;;;;;;7.55;4.13;;;;;;;;;;5052365;28;20506;-48
2022/05/08 01:04:10;;;;;;;6.03;3.75;;;;;;;;;;5052685;28;20111;-47
2022/05/08 01:06:36;;;;;;;5.13;3.65;;;;;;;;;;5052597;28;20021;-48
2022/05/08 01:09:01;;;;;;;7.18;4.82;;;;;;;;;;5052572;28;20025;-48
2022/05/08 01:11:27;;;;;;;8.63;5.00;;;;;;;;;;5052535;28;20025;-50
2022/05/08 01:13:52;;;;;;;10.75;6.53;;;;;;;;;;5052020;28;20039;-48
2022/05/08 01:16:19;;;;;;;6.82;5.13;;;;;;;;;;5052504;28;20033;-48
2022/05/08 01:18:46;;;;;;;7.00;5.60;;;;;;;;;;5055344;28;20487;-47
2022/05/08 01:21:17;;;;;;;6.68;5.35;;;;;;;;;;5058808;28;20033;-51
2022/05/08 01:23:44;;;;;;;9.65;5.50;;;;;;;;;;5058872;28;20071;-48
2022/05/08 01:26:10;;;;;;;12.73;5.47;;;;;;;;;;5059046;28;20025;-49
2022/05/08 01:28:35;;;;;;;8.95;5.60;;;;;;;;;;5058915;28;20033;-49
2022/05/08 01:31:01;;;;;;;7.30;5.75;;;;;;;;;;5057734;28;20024;-51
2022/05/08 01:33:27;;;;;;;7.20;5.38;;;;;;;;;;5057885;28;20025;-51
2022/05/08 01:35:53;;;;;;;11.20;5.45;;;;;;;;;;5059044;28;20028;-49
2022/05/08 01:38:21;;;;;;;6.82;5.72;;;;;;;;;;5058851;28;20021;-50
2022/05/08 01:40:47;;;;;;;9.80;5.57;;;;;;;;;;5059036;28;20033;-50
2022/05/08 01:43:13;;;;;;;8.43;5.53;;;;;;;;;;5058764;28;20021;-47
2022/05/08 01:45:40;;;;;;;7.50;5.53;;;;;;;;;;5058700;28;20028;-50
2022/05/08 01:48:26;;;;;;;8.25;5.75;;;;;;;;;;5057404;28;20025;-50
2022/05/08 01:50:56;;;;;;;9.80;6.05;;;;;;;;;;5056985;28;20032;-51
2022/05/08 01:53:26;;;;;;;7.72;5.32;;;;;;;;;;5056955;28;20028;-48
2022/05/08 01:55:54;;;;;;;;;;;;;;;;;;5057206;28;20059;-48
2022/05/08 01:58:24;;;;;;;5.63;5.03;;;;;;;;;;5056640;28;19921;-50
2022/05/08 02:00:50;;;;;;;8.20;5.35;;;;;;;;;;5056689;28;20500;-48
2022/05/08 02:03:17;;;;;;;6.13;5.05;;;;;;;;;;5058047;28;20033;-48
2022/05/08 02:05:43;;;;;;;5.93;5.13;;;;;;;;;;5058798;28;20028;-53
2022/05/08 02:08:09;;;;;;;7.63;6.00;;;;;;;;;;5058822;28;20021;-50
2022/05/08 02:10:35;;;;;;;8.32;5.60;;;;;;;;;;5058468;28;20025;-55
2022/05/08 02:13:01;;;;;;;11.98;6.13;;;;;;;;;;5058743;28;20032;-51
2022/05/08 02:15:29;;;;;;;7.22;5.00;;;;;;;;;;5058741;28;20028;-50
2022/05/08 02:18:03;;;;;;;8.23;6.18;;;;;;;;;;5058814;28;20027;-50
2022/05/08 02:20:29;;;;;;;7.22;5.82;;;;;;;;;;5058672;28;20030;-50
2022/05/08 02:22:54;;;;;;;12.70;5.70;;;;;;;;;;5058692;28;20484;-50
2022/05/08 02:25:20;;;;;;;9.27;5.85;;;;;;;;;;5058668;28;20122;-50
2022/05/08 02:27:49;;;;;;;10.73;6.60;;;;;;;;;;5058682;28;20024;-47
2022/05/08 02:30:16;;;;;;;8.60;6.10;;;;;;;;;;5055748;28;20025;-50
2022/05/08 02:32:42;;;;;;;6.72;5.72;;;;;;;;;;5055407;28;20029;-48
2022/05/08 02:35:11;;;;;;;10.98;6.47;;;;;;;;;;5055364;28;20029;-51
2022/05/08 02:37:38;;;;;;;8.05;6.50;;;;;;;;;;5055423;28;20112;-49
2022/05/08 02:40:06;;;;;;;7.85;5.90;;;;;;;;;;5037455;28;20060;-50
2022/05/08 02:42:32;;;;;;;8.88;6.28;;;;;;;;;;5055281;28;20025;-51
2022/05/08 02:44:57;;;;;;;7.95;6.55;;;;;;;;;;5055242;28;20021;-49
2022/05/08 02:47:22;;;;;;;10.20;6.20;;;;;;;;;;5054904;28;20021;-50
2022/05/08 02:49:48;;;;;;;6.47;4.28;;;;;;;;;;5054864;28;20029;-53
2022/05/08 02:52:13;;;;;;;5.97;4.57;;;;;;;;;;5054664;28;20025;-49
2022/05/08 02:54:39;;;;;;;10.35;6.43;;;;;;;;;;5054755;28;20037;-50
2022/05/08 03:00:07;;;;;;;11.32;7.72;;;;;;;;;;5031583;28;20103;-50
2022/05/08 03:02:36;;;;;;;7.75;6.22;;;;;;;;;;5054873;28;20037;-50
2022/05/08 03:05:02;;;;;;;11.13;6.57;;;;;;;;;;5054549;28;20029;-49
2022/05/08 03:07:29;;;;;;;13.02;6.85;;;;;;;;;;5054831;28;20044;-49
2022/05/08 03:09:54;;;;;;;13.73;8.02;;;;;;;;;;5054779;28;20025;-50
2022/05/08 03:12:20;;;;;;;10.65;7.07;;;;;;;;;;5054351;28;20035;-49
2022/05/08 03:14:45;;;;;;;8.95;7.00;;;;;;;;;;5054415;28;20051;-50
2022/05/08 03:17:11;;;;;;;9.38;5.15;;;;;;;;;;5054539;28;20025;-49
2022/05/08 03:19:36;;;;;;;5.70;4.43;;;;;;;;;;5054596;28;20443;-49
2022/05/08 03:22:02;;;;;;;13.10;7.05;;;;;;;;;;5054178;28;20427;-48
2022/05/08 03:24:29;;;;;;;12.80;8.00;;;;;;;;;;5054207;28;20035;-48
2022/05/08 03:26:55;;;;;;;10.73;6.75;;;;;;;;;;5054373;28;20029;-50
2022/05/08 03:29:20;;;;;;;11.32;7.38;;;;;;;;;;5036228;28;20021;-50
2022/05/08 03:31:46;;;;;;;19.48;8.23;;;;;;;;;;5054030;28;20035;-51
2022/05/08 03:34:11;;;;;;;11.50;8.13;;;;;;;;;;5054290;28;20404;-50
2022/05/08 03:36:37;;;;;;;13.23;8.20;;;;;;;;;;5054215;28;20522;-50
2022/05/08 03:39:02;;;;;;;10.98;7.82;;;;;;;;;;5054242;28;20028;-50
2022/05/08 03:41:28;;;;;;;10.00;7.60;;;;;;;;;;5053523;28;20372;-51
2022/05/08 03:43:53;;;;;;;10.30;7.07;;;;;;;;;;5053808;28;20025;-49
2022/05/08 03:46:19;;;;;;;15.32;7.97;;;;;;;;;;5054103;28;20029;-50
2022/05/08 03:48:44;;;;;;;8.82;6.20;;;;;;;;;;5053686;28;20496;-50
2022/05/08 03:51:10;;;;;;;9.77;7.18;;;;;;;;;;5053909;28;20043;-49
2022/05/08 03:53:35;;;;;;;9.63;7.50;;;;;;;;;;5053882;28;20029;-49
2022/05/08 03:56:01;;;;;;;11.48;7.18;;;;;;;;;;5053854;28;20033;-51
2022/05/08 03:58:26;;;;;;;8.98;7.43;;;;;;;;;;5053579;28;20041;-50
2022/05/08 04:00:52;;;;;;;12.27;7.72;;;;;;;;;;5053552;28;20056;-50
2022/05/08 04:03:18;;;;;;;9.48;7.07;;;;;;;;;;5053482;28;20029;-50
2022/05/08 04:05:43;;;;;;;21.02;7.97;;;;;;;;;;5053415;28;20029;-50
2022/05/08 04:08:09;;;;;;;8.00;6.38;;;;;;;;;;5053705;28;20031;-51
2022/05/08 04:10:34;;;;;;;9.90;7.50;;;;;;;;;;5053561;28;20037;-51
2022/05/08 04:12:59;;;;;;;10.30;7.85;;;;;;;;;;5053512;28;20040;-50
2022/05/08 04:18:09;;;;;;;10.27;7.38;;;;;;;;;;5053583;28;20032;-50
2022/05/08 04:20:36;;;;;;;10.88;7.53;;;;;;;;;;5053109;28;20388;-47
2022/05/08 04:25:46;;;;;;;13.98;7.13;;;;;;;;;;5053415;28;20079;-50
2022/05/08 04:28:11;;;;;;;9.25;6.85;;;;;;;;;;5053333;28;20025;-50
2022/05/08 04:30:38;;;;;;;13.18;6.82;;;;;;;;;;5053214;28;20090;-52
2022/05/08 04:33:03;;;;;;;8.63;5.95;;;;;;;;;;5052882;28;20059;-50
2022/05/08 04:35:29;;;;;;;10.65;6.82;;;;;;;;;;5053156;28;20056;-51
2022/05/08 04:37:54;;;;;;;4.75;3.80;;;;;;;;;;5052793;28;20020;-52
2022/05/08 04:40:19;;;;;;;4.40;3.33;;;;;;;;;;5052747;28;20090;-53
2022/05/08 04:42:45;;;;;;;7.03;5.15;;;;;;;;;;5052757;28;20025;-53
2022/05/08 04:45:10;;;;;;;4.63;3.92;;;;;;;;;;5052976;28;20028;-52
2022/05/08 04:47:36;;;;;;;9.05;5.30;;;;;;;;;;5052692;28;20017;-54
2022/05/08 04:50:02;;;;;;;7.90;5.20;;;;;;;;;;5052917;28;20025;-51
2022/05/08 04:52:27;;;;;;;15.68;7.07;;;;;;;;;;5052519;28;20102;-52
2022/05/08 04:54:53;;;;;;;2.35;1.92;;;;;;;;;;5052166;28;20090;-51
2022/05/08 04:57:18;;;;;;;5.35;3.75;;;;;;;;;;5052574;28;20041;-54
2022/05/08 04:59:43;;;;;;;7.13;5.28;;;;;;;;;;5052757;28;20032;-52
2022/05/08 05:02:09;;;;;;;3.28;2.53;;;;;;;;;;5052566;28;20029;-53
2022/05/08 05:04:35;;;;;;;5.68;4.43;;;;;;;;;;5052732;28;20029;-51
2022/05/08 05:07:01;;;;;;;9.50;5.13;;;;;;;;;;5052720;28;20087;-51
2022/05/08 05:09:27;;;;;;;8.05;4.63;;;;;;;;;;5052664;28;20526;-51
2022/05/08 05:11:52;;;;;;;4.45;3.30;;;;;;;;;;5052522;28;20462;-49
2022/05/08 05:14:17;;;;;;;7.45;5.38;;;;;;;;;;5052323;28;20047;-49
2022/05/08 05:16:43;;;;;;;9.82;6.85;;;;;;;;;;5052644;28;20072;-48
2022/05/08 05:19:09;;;;;;;8.32;5.30;;;;;;;;;;5052279;28;20021;-50
2022/05/08 05:21:34;;;;;;;6.15;4.25;;;;;;;;;;5052275;28;20461;-51
2022/05/08 05:24:00;;;;;;;8.30;5.22;;;;;;;;;;5052202;28;20028;-50
2022/05/08 05:26:25;;;;;;;3.60;2.92;;;;;;;;;;5052245;28;20421;-50
2022/05/08 05:28:51;;;;;;;5.13;4.03;;;;;;;;;;5052244;28;20032;-51
2022/05/08 05:31:17;;;;;;;6.63;4.22;;;;;;;;;;5052406;28;20024;-50
2022/05/08 05:33:44;;;;;;;4.25;2.97;;;;;;;;;;5052192;28;20039;-49
2022/05/08 05:36:09;;;;;;;3.92;2.63;;;;;;;;;;5052104;28;20473;-52
2022/05/08 05:38:35;;;;;;;7.65;5.32;;;;;;;;;;5052406;28;20100;-51
2022/05/08 05:41:00;;;;;;;6.40;3.30;;;;;;;;;;5052420;28;20079;-51
2022/05/08 05:43:26;;;;;;;4.65;3.28;;;;;;;;;;5052354;28;20376;-51
2022/05/08 05:47:49;;;;;;;5.50;4.15;;;;;;;;;;5052331;28;20025;-50
2022/05/08 05:48:37;;;;;;;5.85;3.80;;;;;;;;;;5051854;28;20033;-51
2022/05/08 05:51:05;;;;;;;5.50;4.78;;;;;;;;;;5051896;28;20025;-51
2022/05/08 05:53:31;;;;;;;3.47;2.88;;;;;;;;;;5051870;28;20025;-51
2022/05/08 05:55:57;;;;;;;6.40;3.38;;;;;;;;;;5052295;28;20029;-51
2022/05/08 05:58:23;;;;;;;3.80;2.70;;;;;;;;;;5051913;28;20048;-51
2022/05/08 06:00:48;;;;;;;6.60;5.20;;;;;;;;;;5052186;28;20079;-51
2022/05/08 06:03:14;;;;;;;7.43;5.20;;;;;;;;;;5051785;28;20476;-50
2022/05/08 06:05:39;;;;;;;8.07;5.47;;;;;;;;;;5054941;28;20037;-50
2022/05/08 06:08:05;;;;;;;6.40;4.32;;;;;;;;;;5055660;28;20079;-50
2022/05/08 06:10:30;;;;;;;4.22;3.15;;;;;;;;;;5055839;28;20021;-51
2022/05/08 06:12:55;;;;;;;6.57;5.15;;;;;;;;;;5055775;28;20107;-54
2022/05/08 06:15:21;;;;;;;4.97;4.45;;;;;;;;;;5055793;28;20453;-51
2022/05/08 06:17:46;;;;;;;8.32;4.75;;;;;;;;;;5055416;28;20035;-50
2022/05/08 06:20:12;;;;;;;5.95;4.78;;;;;;;;;;5055396;28;20106;-52
2022/05/08 06:22:37;;;;;;;8.65;3.08;;;;;;;;;;5055694;28;20044;-52
2022/05/08 06:25:03;;;;;;;3.17;2.90;;;;;;;;;;5055390;28;20289;-52
2022/05/08 06:27:29;;;;;;;5.55;4.88;;;;;;;;;;5055350;28;20033;-54
2022/05/08 06:29:55;;;;;;;5.05;4.13;;;;;;;;;;5055232;28;20527;-52
2022/05/08 06:32:21;;;;;;;8.73;5.75;;;;;;;;;;5055169;28;20029;-52
2022/05/08 06:34:47;;;;;;;3.95;3.58;;;;;;;;;;5055493;28;20103;-51
2022/05/08 06:37:13;;;;;;;10.68;4.15;;;;;;;;;;5055430;28;20448;-52
2022/05/08 06:39:38;;;;;;;4.85;3.38;;;;;;;;;;5055381;28;20049;-51
2022/05/08 06:42:05;;;;;;;6.25;4.57;;;;;;;;;;5055309;28;20054;-53
2022/05/08 06:44:31;;;;;;;4.97;4.47;;;;;;;;;;5055197;28;20029;-53
2022/05/08 06:46:56;;;;;;;5.95;4.70;;;;;;;;;;5055193;28;20029;-52
2022/05/08 06:49:21;;;;;;;6.30;4.45;;;;;;;;;;5054842;28;20039;-54
2022/05/08 06:51:48;;;;;;;7.28;4.88;;;;;;;;;;5055082;28;20025;-54
2022/05/08 06:54:13;;;;;;;5.03;4.53;;;;;;;;;;5054679;28;20036;-51
2022/05/08 06:56:41;;;;;;;8.07;4.82;;;;;;;;;;5054802;28;20025;-54
2022/05/08 07:01:51;;;;;;;6.25;4.07;;;;;;;;;;5054726;28;20428;-54
2022/05/08 07:04:16;;;;;;;6.38;4.10;;;;;;;;;;5054643;28;20123;-55
2022/05/08 07:06:42;;;;;;;7.35;4.20;;;;;;;;;;5054846;28;20029;-55
2022/05/08 07:09:08;;;;;;;4.63;4.15;;;;;;;;;;5054440;28;20025;-53
2022/05/08 07:11:33;;;;;;;6.95;4.40;;;;;;;;;;5054494;28;20033;-52
2022/05/08 07:14:00;;;;;;;4.50;4.07;;;;;;;;;;5054367;28;20167;-55
2022/05/08 07:16:27;;;;;;;9.70;4.05;;;;;;;;;;5053730;28;20499;-53
2022/05/08 07:18:52;;;;;;;6.07;4.18;;;;;;;;;;5054340;28;20033;-55
2022/05/08 07:21:19;;;;;;;4.25;3.22;;;;;;;;;;5054555;28;20036;-56
2022/05/08 07:23:48;;;;;;;4.05;3.42;;;;;;;;;;5054473;28;20021;-55
2022/05/08 07:26:14;;;;;;;5.72;3.08;;;;;;;;;;5054513;28;20032;-54
2022/05/08 07:28:40;;;;;;;3.58;2.92;;;;;;;;;;5054368;28;20032;-52
2022/05/08 07:31:05;;;;;;;6.80;3.47;;;;;;;;;;5054434;28;20021;-53
2022/05/08 07:33:34;;;;;;;7.80;3.40;;;;;;;;;;5053979;28;20045;-54
2022/05/08 07:36:14;;;;;;;7.35;3.20;;;;;;;;;;5054298;28;20029;-55
2022/05/08 07:38:40;;;;;;;6.68;3.72;;;;;;;;;;5054090;28;20108;-55
2022/05/08 07:41:06;;;;;;;5.78;3.40;;;;;;;;;;5053887;28;20400;-56
2022/05/08 07:43:31;;;;;;;8.07;3.55;;;;;;;;;;5054163;28;20021;-55
2022/05/08 07:45:57;;;;;;;3.30;3.00;;;;;;;;;;5054159;28;20342;-55
2022/05/08 07:48:22;;;;;;;5.35;2.97;;;;;;;;;;5053838;28;20103;-53
2022/05/08 07:50:49;;;;;;;4.55;3.33;;;;;;;;;;5054087;28;20045;-52
2022/05/08 07:53:15;;;;;;;4.10;3.00;;;;;;;;;;5053906;28;20021;-56
2022/05/08 07:55:41;;;;;;;4.25;2.97;;;;;;;;;;5053691;28;20041;-51
2022/05/08 07:58:06;;;;;;;4.40;3.10;;;;;;;;;;5053632;28;20083;-53
2022/05/08 08:00:31;;;;;;;3.10;2.80;;;;;;;;;;5053602;28;20423;-52
2022/05/08 08:02:57;;;;;;;4.85;2.72;;;;;;;;;;5053544;28;20028;-54
2022/05/08 08:05:23;;;;;;;7.75;3.45;;;;;;;;;;5053737;28;20036;-52
2022/05/08 08:07:49;;;;;;;4.18;2.83;;;;;;;;;;5053354;28;20021;-55
2022/05/08 08:10:15;;;;;;;3.80;2.95;;;;;;;;;;5053265;28;20036;-56
2022/05/08 08:12:41;;;;;;;5.47;3.35;;;;;;;;;;5051743;28;20112;-54
2022/05/08 08:15:08;;;;;;;3.80;2.85;;;;;;;;;;5051676;28;20021;-53
2022/05/08 08:17:33;;;;;;;2.75;2.55;;;;;;;;;;5051882;28;20021;-53
2022/05/08 08:19:58;;;;;;;5.78;3.15;;;;;;;;;;5051844;28;20377;-54
2022/05/08 08:22:24;;;;;;;5.20;3.10;;;;;;;;;;5052904;28;20040;-53
2022/05/08 08:24:49;;;;;;;5.72;3.15;;;;;;;;;;5052463;28;20453;-54
2022/05/08 08:27:16;;;;;;;3.42;2.58;;;;;;;;;;5051362;28;20103;-52
2022/05/08 08:29:42;;;;;;;7.72;3.10;;;;;;;;;;5051919;28;20128;-54
2022/05/08 08:32:08;;;;;;;5.00;2.40;;;;;;;;;;5052583;28;20207;-53
2022/05/08 08:34:33;;;;;;;5.65;1.98;;;;;;;;;;5053228;28;20078;-46
2022/05/08 08:36:59;;;;;;;5.70;2.88;;;;;;;;;;5052778;28;20100;-51
2022/05/08 08:39:24;;;;;;;3.78;2.72;;;;;;;;;;5051151;28;20033;-48
2022/05/08 08:42:28;;;;;;;3.60;2.50;;;;;;;;;;5033413;28;20029;-52
2022/05/08 08:48:05;;;;;;;4.82;2.55;;;;;;;;;;5052217;28;20040;-51
2022/05/08 08:50:32;;;;;;;6.68;2.20;;;;;;;;;;5041093;28;20041;-53
2022/05/08 08:53:02;;;;;;;7.53;3.38;;;;;;;;;;5052501;28;20154;-54
2022/05/08 08:55:27;;;;;;;;;;;;;;;;;;5053046;28;20021;-52
2022/05/08 08:57:53;;;;;;;3.83;2.63;;;;;;;;;;5051547;28;19920;-51
2022/05/08 09:00:21;;;;;;;3.38;2.30;;;;;;;;;;5051958;28;20482;-50
2022/05/08 09:02:47;;;;;;;3.40;3.00;;;;;;;;;;5050822;28;20029;-49
2022/05/08 09:05:13;;;;;;;7.15;3.00;;;;;;;;;;5052518;28;20465;-51
2022/05/08 09:07:40;;;;;;;6.90;2.97;;;;;;;;;;5051978;28;20033;-52
2022/05/08 09:10:23;;;;;;;4.82;2.58;;;;;;;;;;5052122;28;20516;-50
2022/05/08 09:12:52;;;;;;;3.00;2.17;;;;;;;;;;5052310;28;20033;-47
2022/05/08 09:15:26;;;;;;;4.18;2.72;;;;;;;;;;5052279;28;20029;-47
2022/05/08 09:17:54;;;;;;;6.03;3.10;;;;;;;;;;5053596;28;20033;-49
2022/05/08 09:20:41;;;;;;;5.75;3.50;;;;;;;;;;5060926;28;20487;-50
2022/05/08 09:23:16;;;;;;;4.30;2.92;;;;;;;;;;5060814;28;20104;-51
2022/05/08 09:26:00;;;;;;;4.20;2.80;;;;;;;;;;5063424;28;20048;-51
2022/05/08 09:28:34;;;;;;;3.25;2.55;;;;;;;;;;5055027;28;20116;-47
2022/05/08 09:31:05;;;;;;;7.18;3.10;;;;;;;;;;5051693;28;20499;-50
2022/05/08 09:33:38;;;;;;;6.95;3.58;;;;;;;;;;5052008;28;20062;-49
2022/05/08 09:36:07;;;;;;;3.85;2.92;;;;;;;;;;5052007;28;20041;-52
2022/05/08 09:38:46;;;;;;;7.25;3.17;;;;;;;;;;5052068;28;20036;-50
2022/05/08 09:41:13;;;;;;;6.00;3.10;;;;;;;;;;5056219;28;20029;-49
2022/05/08 09:43:40;;;;;;;7.32;3.25;;;;;;;;;;5056076;28;20025;-52
2022/05/08 09:46:06;;;;;;;2.80;2.50;;;;;;;;;;5056392;28;20467;-51
2022/05/08 09:48:33;;;;;;;6.55;3.47;;;;;;;;;;5056483;28;20472;-53
2022/05/08 09:51:10;;;;;;;8.43;3.85;;;;;;;;;;5070002;28;20498;-50
2022/05/08 09:53:37;;;;;;;5.38;3.80;;;;;;;;;;5057742;28;20033;-49
2022/05/08 09:56:05;;;;;;;4.97;2.80;;;;;;;;;;5055854;28;20453;-49
2022/05/08 09:58:31;;;;;;;3.00;2.70;;;;;;;;;;5055579;28;20377;-50
2022/05/08 10:00:57;;;;;;;3.45;2.75;;;;;;;;;;5056034;28;20021;-49
2022/05/08 10:03:23;;;;;;;5.63;2.70;;;;;;;;;;5055633;28;20419;-48
2022/05/08 10:05:50;;;;;;;4.40;2.80;;;;;;;;;;5057089;28;20068;-52
2022/05/08 10:08:18;;;;;;;6.82;3.03;;;;;;;;;;5064687;28;20025;-53
2022/05/08 10:16:53;;;;;;;4.57;2.80;;;;;;;;;;5055397;28;20033;-51
2022/05/08 10:19:22;;;;;;;3.78;3.10;;;;;;;;;;5002611;28;20477;-52
2022/05/08 10:22:13;;;;;;;7.85;3.20;;;;;;;;;;5055472;28;20358;-52
2022/05/08 10:24:47;;;;;;;4.72;3.00;;;;;;;;;;5055475;28;20029;-51
2022/05/08 10:27:15;;;;;;;2.13;1.95;;;;;;;;;;5055015;28;20047;-50
2022/05/08 10:29:54;;;;;;;5.88;2.80;;;;;;;;;;5055522;28;20025;-53
2022/05/08 10:32:32;;;;;;;3.20;2.90;;;;;;;;;;5054938;28;20094;-48
2022/05/08 10:35:12;;;;;;;2.95;2.70;;;;;;;;;;5055181;28;20057;-52
2022/05/08 10:37:39;;;;;;;2.55;2.35;;;;;;;;;;5055165;28;20028;-51
2022/05/08 10:40:25;;;;;;;2.25;2.08;;;;;;;;;;5037247;28;20037;-49
2022/05/08 10:43:26;;;;;;;4.18;3.08;;;;;;;;;;5054932;28;20103;-51
2022/05/08 10:45:52;;;;;;;4.35;3.20;;;;;;;;;;5044056;28;20037;-50
2022/05/08 10:48:19;;;;;;;12.05;3.30;;;;;;;;;;5054941;28;20031;-51
2022/05/08 10:50:56;;;;;;;4.68;3.08;;;;;;;;;;5053978;28;20071;-53
2022/05/08 10:53:30;;;;;;;3.88;3.20;;;;;;;;;;5055035;28;20029;-53
2022/05/08 10:56:00;;;;;;;4.60;3.17;;;;;;;;;;5055089;28;20119;-53
2022/05/08 10:58:26;;;;;;;4.70;3.20;;;;;;;;;;5054521;28;20495;-53
2022/05/08 11:00:56;;;;;;;5.90;2.83;;;;;;;;;;5054963;28;20041;-53
2022/05/08 11:03:22;;;;;;;5.38;2.80;;;;;;;;;;5054879;28;20033;-51
2022/05/08 11:05:48;;;;;;;5.97;3.03;;;;;;;;;;5054572;28;20100;-51
2022/05/08 11:08:24;;;;;;;5.35;3.20;;;;;;;;;;5054877;28;20025;-52
2022/05/08 11:10:58;;;;;;;3.83;2.90;;;;;;;;;;5054804;28;20032;-56
2022/05/08 11:13:26;;;;;;;4.65;3.33;;;;;;;;;;5054426;28;20392;-53
2022/05/08 11:15:51;;;;;;;5.50;3.00;;;;;;;;;;5054651;28;20025;-51
2022/05/08 11:18:17;;;;;;;11.55;3.67;;;;;;;;;;5054693;28;20371;-48
2022/05/08 11:20:50;;;;;;;4.57;3.10;;;;;;;;;;5054239;28;20143;-51
2022/05/08 11:23:18;;;;;;;3.25;2.95;;;;;;;;;;5054561;28;20192;-53
2022/05/08 11:25:55;;;;;;;3.75;3.13;;;;;;;;;;5054165;28;20017;-51
2022/05/08 11:28:22;;;;;;;3.67;2.90;;;;;;;;;;5054545;28;20396;-51
2022/05/08 11:30:50;;;;;;;2.25;2.05;;;;;;;;;;5054461;28;20082;-49
2022/05/08 11:36:06;;;;;;;2.85;2.55;;;;;;;;;;5054348;28;20391;-47
2022/05/08 11:38:42;;;;;;;5.90;3.45;;;;;;;;;;5054326;28;20029;-50
2022/05/08 11:41:15;;;;;;;6.20;3.40;;;;;;;;;;5053952;28;20017;-53
2022/05/08 11:43:44;;;;;;;3.30;1.98;;;;;;;;;;5053925;28;20365;-51
2022/05/08 11:46:17;;;;;;;6.47;2.83;;;;;;;;;;5054086;28;20033;-50
2022/05/08 11:48:46;;;;;;;6.03;3.50;;;;;;;;;;5054093;28;20099;-50
2022/05/08 11:51:13;;;;;;;6.22;2.63;;;;;;;;;;5053753;28;20021;-49
2022/05/08 11:53:49;;;;;;;8.15;4.68;;;;;;;;;;5053863;28;20033;-49
2022/05/08 11:56:35;;;;;;;5.22;2.13;;;;;;;;;;5053945;28;20036;-49
2022/05/08 11:59:03;;;;;;;4.45;3.70;;;;;;;;;;5053346;28;20043;-48
2022/05/08 12:01:38;;;;;;;2.72;2.53;;;;;;;;;;5053549;28;20112;-48
2022/05/08 12:04:24;;;;;;;2.67;2.47;;;;;;;;;;5053257;28;20068;-51
2022/05/08 12:07:10;;;;;;;3.22;2.92;;;;;;;;;;5035709;28;20025;-48
2022/05/08 12:09:45;;;;;;;4.22;3.17;;;;;;;;;;5053382;28;20448;-47
2022/05/08 12:12:35;;;;;;;4.18;2.47;;;;;;;;;;5053540;28;20404;-48
2022/05/08 12:15:07;;;;;;;3.35;2.42;;;;;;;;;;5053248;28;20035;-49
2022/05/08 12:17:42;;;;;;;5.40;3.08;;;;;;;;;;5053559;28;20053;-51
2022/05/08 12:20:28;;;;;;;5.22;3.42;;;;;;;;;;5053140;28;20032;-54
2022/05/08 12:23:06;;;;;;;6.65;3.88;;;;;;;;;;5053393;28;20106;-53
2022/05/08 12:25:34;;;;;;;3.88;2.45;;;;;;;;;;5053440;28;20052;-56
2022/05/08 12:28:00;;;;;;;4.95;3.40;;;;;;;;;;5052987;28;20052;-53
2022/05/08 12:30:25;;;;;;;3.42;2.20;;;;;;;;;;5052985;28;20017;-53
2022/05/08 12:32:51;;;;;;;4.00;3.53;;;;;;;;;;5035030;28;20040;-55
2022/05/08 12:35:18;;;;;;;3.58;3.08;;;;;;;;;;5053249;28;20025;-55
2022/05/08 12:37:47;;;;;;;5.18;3.30;;;;;;;;;;5053114;28;20051;-53
2022/05/08 12:40:14;;;;;;;4.65;4.00;;;;;;;;;;5053114;28;20060;-54
2022/05/08 12:42:40;;;;;;;2.70;2.50;;;;;;;;;;5053065;28;20463;-50
2022/05/08 12:45:06;;;;;;;4.00;3.53;;;;;;;;;;5052780;28;20112;-54
2022/05/08 12:47:32;;;;;;;3.75;3.38;;;;;;;;;;5052935;28;20056;-51
2022/05/08 12:49:58;;;;;;;7.15;2.83;;;;;;;;;;5052640;28;20468;-53
2022/05/08 12:52:23;;;;;;;4.65;3.72;;;;;;;;;;5052869;28;20036;-54
2022/05/08 12:54:49;;;;;;;6.82;3.67;;;;;;;;;;5052915;28;20025;-53
2022/05/08 12:59:42;;;;;;;4.50;2.60;;;;;;;;;;5052837;28;20020;-54
2022/05/08 13:00:00;;;;;;;6.35;3.65;;;;;;;;;;5052367;28;20088;-51
2022/05/08 13:02:28;;;;;;;5.13;3.70;;;;;;;;;;5052512;28;20056;-52
2022/05/08 13:04:54;;;;;;;5.25;3.58;;;;;;;;;;5052747;28;20024;-55
2022/05/08 13:07:19;;;;;;;3.85;2.92;;;;;;;;;;5052429;28;20028;-53
2022/05/08 13:09:45;;;;;;;5.40;3.92;;;;;;;;;;5052740;28;20033;-55
2022/05/08 13:12:11;;;;;;;4.85;3.53;;;;;;;;;;5052563;28;20025;-51
2022/05/08 13:14:37;;;;;;;6.18;3.50;;;;;;;;;;5052089;28;20040;-50
2022/05/08 13:17:04;;;;;;;4.97;3.85;;;;;;;;;;5052587;28;20159;-52
2022/05/08 13:19:33;;;;;;;3.10;2.25;;;;;;;;;;5052581;28;20048;-53
2022/05/08 13:22:03;;;;;;;3.20;2.20;;;;;;;;;;5052888;28;20108;-54
2022/05/08 13:24:28;;;;;;;4.55;3.30;;;;;;;;;;5052606;28;20086;-52
2022/05/08 13:26:58;;;;;;;6.90;3.40;;;;;;;;;;5052476;28;20549;-51
2022/05/08 13:29:25;;;;;;;8.63;3.20;;;;;;;;;;5052545;28;20388;-51
2022/05/08 13:31:51;;;;;;;3.85;2.58;;;;;;;;;;5052463;28;20069;-54
2022/05/08 13:34:18;;;;;;;5.28;3.60;;;;;;;;;;5052097;28;20029;-54
2022/05/08 13:36:44;;;;;;;4.35;3.72;;;;;;;;;;5052415;28;20148;-49
2022/05/08 13:39:09;;;;;;;7.60;2.63;;;;;;;;;;5034430;28;20100;-54
2022/05/08 13:41:35;;;;;;;3.40;2.90;;;;;;;;;;5052378;28;20021;-52
2022/05/08 13:44:02;;;;;;;4.15;2.90;;;;;;;;;;5052360;28;20029;-54
2022/05/08 13:46:28;;;;;;;3.10;2.33;;;;;;;;;;5052035;28;20079;-53
2022/05/08 13:48:53;;;;;;;3.65;2.70;;;;;;;;;;5052089;28;20025;-51
2022/05/08 13:51:19;;;;;;;4.38;3.45;;;;;;;;;;5052263;28;20025;-54
2022/05/08 13:53:44;;;;;;;7.60;4.07;;;;;;;;;;5052165;28;20102;-53
2022/05/08 13:56:10;;;;;;;4.20;3.80;;;;;;;;;;5051922;28;20037;-51
2022/05/08 13:58:36;;;;;;;4.78;3.72;;;;;;;;;;5051925;28;20056;-54
2022/05/08 14:01:04;;;;;;;4.20;3.80;;;;;;;;;;5052224;28;20063;-51
2022/05/08 14:03:30;;;;;;;4.72;3.90;;;;;;;;;;5052173;28;20021;-52
2022/05/08 14:05:56;;;;;;;4.97;3.65;;;;;;;;;;5052132;28;20025;-52
2022/05/08 14:08:22;;;;;;;3.88;3.40;;;;;;;;;;5051926;28;20029;-52
2022/05/08 14:10:48;;;;;;;6.43;4.00;;;;;;;;;;5052088;28;20412;-54
2022/05/08 14:13:14;;;;;;;6.82;3.92;;;;;;;;;;5051667;28;20029;-51
2022/05/08 14:15:39;;;;;;;4.63;3.40;;;;;;;;;;5052082;28;20071;-53
2022/05/08 14:18:06;;;;;;;4.93;3.33;;;;;;;;;;5052037;28;20013;-54
2022/05/08 14:20:31;;;;;;;3.70;2.83;;;;;;;;;;5051742;28;20079;-51
2022/05/08 14:22:57;;;;;;;3.67;3.28;;;;;;;;;;5051788;28;20025;-50
2022/05/08 14:25:23;;;;;;;10.90;2.50;;;;;;;;;;5034587;28;20029;-51
2022/05/08 14:27:51;;;;;;;5.22;2.75;;;;;;;;;;5055677;28;20064;-50
2022/05/08 14:30:17;;;;;;;2.80;1.83;;;;;;;;;;5038141;28;20437;-48
2022/05/08 14:36:01;;;;;;;5.03;3.00;;;;;;;;;;5055541;28;20035;-53
2022/05/08 14:38:28;;;;;;;6.22;2.83;;;;;;;;;;5054963;28;20374;-53
2022/05/08 14:40:54;;;;;;;3.67;2.80;;;;;;;;;;5055382;28;20033;-49
2022/05/08 14:43:21;;;;;;;3.67;3.38;;;;;;;;;;5054977;28;20508;-49
2022/05/08 14:45:46;;;;;;;3.45;3.15;;;;;;;;;;5054980;28;20032;-49
2022/05/08 14:48:12;;;;;;;4.13;3.65;;;;;;;;;;5054945;28;20021;-51
2022/05/08 14:50:38;;;;;;;4.25;3.78;;;;;;;;;;5055240;28;20052;-49
2022/05/08 14:53:05;;;;;;;5.82;3.67;;;;;;;;;;5055050;28;20460;-52
2022/05/08 14:55:31;;;;;;;4.60;3.65;;;;;;;;;;5054804;28;20039;-51
2022/05/08 14:57:56;;;;;;;5.65;3.40;;;;;;;;;;5054790;28;20104;-53
2022/05/08 15:00:22;;;;;;;4.63;3.67;;;;;;;;;;5055041;28;20025;-54
2022/05/08 15:02:49;;;;;;;4.00;3.67;;;;;;;;;;5054743;28;20032;-54
2022/05/08 15:05:14;;;;;;;3.70;2.53;;;;;;;;;;5054692;28;20116;-52
2022/05/08 15:07:39;;;;;;;3.15;2.05;;;;;;;;;;5054879;28;20068;-51
2022/05/08 15:10:06;;;;;;;2.47;2.28;;;;;;;;;;5054845;28;20025;-47
2022/05/08 15:12:33;;;;;;;3.80;2.83;;;;;;;;;;5054721;28;20021;-45